Aeroporto :
LOGIN :

Iscrizione | Disclaimer

   EN    FR    IT 

 










Sommario :    VFR   VFR Marginale   IFR   IFR Intensivo   IFR Molto Intensivo
Visibilità : 
Base nubi : 
>= 8 km
>= 3000ft
5 / 8 km
1000 / 3000 ft
1500m / 5 km
500 / 1000 ft
800 / 1500m
200 / 500 ft
< 800m
< 200 ft
Simboli :   Temporali  Nebbia  Neve Forte  Precipitazioni Forti  Vento > 20 kt
SIGMETs :   Varie  Temporali  Ghiacco  Turbolenza  Onda orograficha  Ceneri Vulcaniche






- Altitudine del aeroporto : 545 ft
- Codice IATA : PZY


LZPP - Piešťany

ULTIMO METAR :
  • 090330Z AUTO 01007KT 9999 NCD 02/M04 Q1023

METARs OBSOLETI :
  • 090300Z AUTO 02005KT 9999 NCD 02/M04 Q1023
  • 090230Z AUTO 03005KT 9999 NCD 01/M05 Q1023
  • 090200Z AUTO 03004KT 9999 NCD 01/M04 Q1023
  • 090130Z AUTO 36005KT 9999 NCD M00/M05 Q1023
  • 090100Z AUTO 01003KT 9999 NCD M00/M05 Q1023

Previsioni scadute.



MetMap, La meteo Aeronautica in un colpo d'occhio ! - Copyright ORBIFLY Dicembre 2007 - Disclaimer

ORBIFLY MET'MAP TEAM :

Programmazione e sviluppo : Alexandra Zaïnal
Concezione : Baudouin d'Aumeries
Aiuto per la programmazione : Marc-Olivier Méhu
Supporto tecnico e logistico : Manuel Goepfert
Aiuto per la traduzione : Arnaldo La Scala

Contatto : metmap@orbifly.com




FONTI E CREDITI :

   NOAA